sensor_id;sensor_type;location;lat;lon;timestamp;pressure;altitude;pressure_sealevel;temperature;humidity
49835;BME280;35729;52.090;13.162;2022-07-01T00:00:34;100526.03;;;22.79;70.04
49835;BME280;35729;52.090;13.162;2022-07-01T00:03:02;100523.56;;;22.76;70.35
49835;BME280;35729;52.090;13.162;2022-07-01T00:05:31;100520.31;;;22.72;70.34
49835;BME280;35729;52.090;13.162;2022-07-01T00:07:59;100512.38;;;22.71;70.25
49835;BME280;35729;52.090;13.162;2022-07-01T00:10:28;100520.53;;;22.69;70.60
49835;BME280;35729;52.090;13.162;2022-07-01T00:12:57;100512.75;;;22.66;70.31
49835;BME280;35729;52.090;13.162;2022-07-01T00:15:25;100512.00;;;22.64;70.54
49835;BME280;35729;52.090;13.162;2022-07-01T00:17:56;100511.25;;;22.62;70.88
49835;BME280;35729;52.090;13.162;2022-07-01T00:20:25;100510.53;;;22.60;70.58
49835;BME280;35729;52.090;13.162;2022-07-01T00:22:53;100508.97;;;22.57;70.96
49835;BME280;35729;52.090;13.162;2022-07-01T00:25:22;100507.25;;;22.56;71.06
49835;BME280;35729;52.090;13.162;2022-07-01T00:27:50;100498.59;;;22.53;70.77
49835;BME280;35729;52.090;13.162;2022-07-01T00:30:19;100512.22;;;22.50;70.84
49835;BME280;35729;52.090;13.162;2022-07-01T00:32:47;100512.44;;;22.47;71.28
49835;BME280;35729;52.090;13.162;2022-07-01T00:35:21;100508.91;;;22.46;71.41
49835;BME280;35729;52.090;13.162;2022-07-01T00:37:49;100503.78;;;22.43;71.31
49835;BME280;35729;52.090;13.162;2022-07-01T00:40:18;100507.44;;;22.42;71.48
49835;BME280;35729;52.090;13.162;2022-07-01T00:42:53;100505.88;;;22.39;71.25
49835;BME280;35729;52.090;13.162;2022-07-01T00:45:22;100507.78;;;22.37;71.55
49835;BME280;35729;52.090;13.162;2022-07-01T00:47:50;100508.72;;;22.36;71.46
49835;BME280;35729;52.090;13.162;2022-07-01T00:50:22;100505.31;;;22.34;71.49
49835;BME280;35729;52.090;13.162;2022-07-01T00:52:51;100508.09;;;22.33;71.59
49835;BME280;35729;52.090;13.162;2022-07-01T00:55:20;100511.00;;;22.29;72.07
49835;BME280;35729;52.090;13.162;2022-07-01T00:57:48;100508.56;;;22.26;72.15
49835;BME280;35729;52.090;13.162;2022-07-01T01:00:18;100514.13;;;22.23;71.86
49835;BME280;35729;52.090;13.162;2022-07-01T01:02:49;100516.19;;;22.20;72.44
49835;BME280;35729;52.090;13.162;2022-07-01T01:05:17;100516.44;;;22.17;72.10
49835;BME280;35729;52.090;13.162;2022-07-01T01:07:50;100510.44;;;22.13;72.78
49835;BME280;35729;52.090;13.162;2022-07-01T01:10:18;100495.59;;;22.09;72.43
49835;BME280;35729;52.090;13.162;2022-07-01T01:12:49;100491.47;;;22.05;73.05
49835;BME280;35729;52.090;13.162;2022-07-01T01:15:18;100487.31;;;22.01;72.67
49835;BME280;35729;52.090;13.162;2022-07-01T01:17:47;100485.72;;;21.98;73.08
49835;BME280;35729;52.090;13.162;2022-07-01T01:20:18;100485.94;;;21.95;72.96
49835;BME280;35729;52.090;13.162;2022-07-01T01:22:49;100482.66;;;21.91;73.39
49835;BME280;35729;52.090;13.162;2022-07-01T01:25:18;100475.81;;;21.87;73.32
49835;BME280;35729;52.090;13.162;2022-07-01T01:27:46;100485.78;;;21.85;73.49
49835;BME280;35729;52.090;13.162;2022-07-01T01:30:15;100481.63;;;21.81;73.73
49835;BME280;35729;52.090;13.162;2022-07-01T01:32:43;100479.94;;;21.80;73.64
49835;BME280;35729;52.090;13.162;2022-07-01T01:35:12;100475.75;;;21.76;74.11
49835;BME280;35729;52.090;13.162;2022-07-01T01:37:41;100476.84;;;21.73;74.12
49835;BME280;35729;52.090;13.162;2022-07-01T01:40:13;100462.78;;;21.71;73.94
49835;BME280;35729;52.090;13.162;2022-07-01T01:42:42;100468.44;;;21.67;74.03
49835;BME280;35729;52.090;13.162;2022-07-01T01:45:11;100463.22;;;21.65;74.03
49835;BME280;35729;52.090;13.162;2022-07-01T01:47:40;100464.28;;;21.62;74.41
49835;BME280;35729;52.090;13.162;2022-07-01T01:50:11;100446.75;;;21.58;74.70
49835;BME280;35729;52.090;13.162;2022-07-01T01:52:40;100455.75;;;21.57;74.88
49835;BME280;35729;52.090;13.162;2022-07-01T01:55:12;100448.81;;;21.55;74.96
49835;BME280;35729;52.090;13.162;2022-07-01T01:57:41;100441.88;;;21.52;74.55
49835;BME280;35729;52.090;13.162;2022-07-01T02:00:11;100444.63;;;21.51;74.69
49835;BME280;35729;52.090;13.162;2022-07-01T02:02:40;100444.00;;;21.47;74.80
49835;BME280;35729;52.090;13.162;2022-07-01T02:05:10;100455.66;;;21.46;74.91
49835;BME280;35729;52.090;13.162;2022-07-01T02:07:40;100456.63;;;21.45;75.34
49835;BME280;35729;52.090;13.162;2022-07-01T02:10:08;100455.88;;;21.43;75.58
49835;BME280;35729;52.090;13.162;2022-07-01T02:12:39;100462.41;;;21.39;75.69
49835;BME280;35729;52.090;13.162;2022-07-01T02:15:09;100458.97;;;21.37;75.16
49835;BME280;35729;52.090;13.162;2022-07-01T02:17:37;100461.88;;;21.34;75.83
49835;BME280;35729;52.090;13.162;2022-07-01T02:20:07;100462.94;;;21.31;75.36
49835;BME280;35729;52.090;13.162;2022-07-01T02:22:40;100458.69;;;21.28;75.58
49835;BME280;35729;52.090;13.162;2022-07-01T02:25:09;100457.94;;;21.26;75.88
49835;BME280;35729;52.090;13.162;2022-07-01T02:27:40;100462.63;;;21.23;76.17
49835;BME280;35729;52.090;13.162;2022-07-01T02:30:09;100464.66;;;21.19;76.30
49835;BME280;35729;52.090;13.162;2022-07-01T02:32:38;100473.72;;;21.16;76.59
49835;BME280;35729;52.090;13.162;2022-07-01T02:35:07;100471.19;;;21.15;76.60
49835;BME280;35729;52.090;13.162;2022-07-01T02:37:36;100476.63;;;21.13;76.54
49835;BME280;35729;52.090;13.162;2022-07-01T02:40:05;100470.53;;;21.11;76.66
49835;BME280;35729;52.090;13.162;2022-07-01T02:42:34;100479.41;;;21.12;76.62
49835;BME280;35729;52.090;13.162;2022-07-01T02:45:07;100478.66;;;21.10;76.63
49835;BME280;35729;52.090;13.162;2022-07-01T02:47:37;100493.91;;;21.08;76.88
49835;BME280;35729;52.090;13.162;2022-07-01T02:50:08;100493.16;;;21.06;77.00
49835;BME280;35729;52.090;13.162;2022-07-01T02:52:37;100499.47;;;21.05;76.81
49835;BME280;35729;52.090;13.162;2022-07-01T02:55:08;100496.78;;;21.05;77.32
49835;BME280;35729;52.090;13.162;2022-07-01T02:57:37;100509.38;;;21.03;77.19
49835;BME280;35729;52.090;13.162;2022-07-01T03:00:11;100500.63;;;21.01;77.47
49835;BME280;35729;52.090;13.162;2022-07-01T03:02:40;100497.22;;;20.98;77.38
49835;BME280;35729;52.090;13.162;2022-07-01T03:05:09;100500.00;;;20.97;77.21
49835;BME280;35729;52.090;13.162;2022-07-01T03:07:38;100497.53;;;20.94;77.53
49835;BME280;35729;52.090;13.162;2022-07-01T03:10:09;100495.84;;;20.93;77.76
49835;BME280;35729;52.090;13.162;2022-07-01T03:12:38;100501.25;;;20.91;77.87
49835;BME280;35729;52.090;13.162;2022-07-01T03:15:11;100494.25;;;20.90;77.54
49835;BME280;35729;52.090;13.162;2022-07-01T03:17:42;100491.59;;;20.90;77.77
49835;BME280;35729;52.090;13.162;2022-07-01T03:20:12;100495.09;;;20.91;78.17
49835;BME280;35729;52.090;13.162;2022-07-01T03:22:42;100488.91;;;20.90;78.24
49835;BME280;35729;52.090;13.162;2022-07-01T03:25:11;100495.94;;;20.91;78.09
49835;BME280;35729;52.090;13.162;2022-07-01T03:27:40;100490.59;;;20.91;78.29
49835;BME280;35729;52.090;13.162;2022-07-01T03:30:13;100495.84;;;20.93;78.02
49835;BME280;35729;52.090;13.162;2022-07-01T03:32:43;100498.41;;;20.94;78.28
49835;BME280;35729;52.090;13.162;2022-07-01T03:35:12;100487.63;;;20.96;78.18
49835;BME280;35729;52.090;13.162;2022-07-01T03:37:54;100485.72;;;20.98;77.86
49835;BME280;35729;52.090;13.162;2022-07-01T03:40:22;100487.38;;;20.99;77.96
49835;BME280;35729;52.090;13.162;2022-07-01T03:42:51;100486.44;;;21.00;77.90
49835;BME280;35729;52.090;13.162;2022-07-01T03:45:22;100482.81;;;21.01;78.35
49835;BME280;35729;52.090;13.162;2022-07-01T03:47:50;100478.34;;;21.02;78.39
49835;BME280;35729;52.090;13.162;2022-07-01T03:50:21;100481.88;;;21.02;78.08
49835;BME280;35729;52.090;13.162;2022-07-01T03:52:50;100488.03;;;21.03;78.32
49835;BME280;35729;52.090;13.162;2022-07-01T03:55:41;100485.28;;;21.04;78.51
49835;BME280;35729;52.090;13.162;2022-07-01T03:58:07;100491.34;;;21.06;78.24
49835;BME280;35729;52.090;13.162;2022-07-01T04:00:38;100488.38;;;21.11;78.11
49835;BME280;35729;52.090;13.162;2022-07-01T04:03:07;100484.75;;;21.12;78.08
49835;BME280;35729;52.090;13.162;2022-07-01T04:05:36;100478.34;;;21.14;78.20
49835;BME280;35729;52.090;13.162;2022-07-01T04:08:07;100481.66;;;21.18;78.48
49835;BME280;35729;52.090;13.162;2022-07-01T04:10:37;100482.38;;;21.20;77.87
49835;BME280;35729;52.090;13.162;2022-07-01T04:13:07;100478.63;;;21.23;78.26
49835;BME280;35729;52.090;13.162;2022-07-01T04:15:38;100488.22;;;21.25;78.26
49835;BME280;35729;52.090;13.162;2022-07-01T04:18:06;100484.50;;;21.28;77.97
49835;BME280;35729;52.090;13.162;2022-07-01T04:20:35;100479.78;;;21.31;77.80
49835;BME280;35729;52.090;13.162;2022-07-01T04:23:03;100475.22;;;21.34;78.21
49835;BME280;35729;52.090;13.162;2022-07-01T04:25:29;100480.31;;;21.37;78.17
49835;BME280;35729;52.090;13.162;2022-07-01T04:27:58;100491.63;;;21.40;77.52
49835;BME280;35729;52.090;13.162;2022-07-01T04:30:34;100491.44;;;21.43;77.42
49835;BME280;35729;52.090;13.162;2022-07-01T04:33:05;100491.19;;;21.46;77.38
49835;BME280;35729;52.090;13.162;2022-07-01T04:35:33;100499.09;;;21.48;77.27
49835;BME280;35729;52.090;13.162;2022-07-01T04:38:04;100503.34;;;21.51;77.60
49835;BME280;35729;52.090;13.162;2022-07-01T04:40:34;100510.41;;;21.52;77.58
49835;BME280;35729;52.090;13.162;2022-07-01T04:43:03;100517.31;;;21.54;77.51
49835;BME280;35729;52.090;13.162;2022-07-01T04:45:29;100518.13;;;21.56;77.14
49835;BME280;35729;52.090;13.162;2022-07-01T04:47:57;100515.22;;;21.59;76.86
49835;BME280;35729;52.090;13.162;2022-07-01T04:50:28;100513.19;;;21.63;76.80
49835;BME280;35729;52.090;13.162;2022-07-01T04:52:57;100511.25;;;21.65;76.77
49835;BME280;35729;52.090;13.162;2022-07-01T04:55:26;100522.47;;;21.70;76.56
49835;BME280;35729;52.090;13.162;2022-07-01T04:57:54;100519.44;;;21.75;76.50
49835;BME280;35729;52.090;13.162;2022-07-01T05:00:23;100530.66;;;21.80;76.88
49835;BME280;35729;52.090;13.162;2022-07-01T05:02:51;100536.59;;;21.84;76.66
49835;BME280;35729;52.090;13.162;2022-07-01T05:05:20;100537.16;;;21.89;76.06
49835;BME280;35729;52.090;13.162;2022-07-01T05:07:51;100546.63;;;21.93;76.40
49835;BME280;35729;52.090;13.162;2022-07-01T05:10:19;100557.09;;;21.96;76.21
49835;BME280;35729;52.090;13.162;2022-07-01T05:12:49;100560.38;;;22.00;75.84
49835;BME280;35729;52.090;13.162;2022-07-01T05:15:17;100564.44;;;22.05;75.48
49835;BME280;35729;52.090;13.162;2022-07-01T05:17:46;100576.50;;;22.11;75.87
49835;BME280;35729;52.090;13.162;2022-07-01T05:20:27;100583.53;;;22.12;76.04
49835;BME280;35729;52.090;13.162;2022-07-01T05:23:10;100577.31;;;22.11;76.30
49835;BME280;35729;52.090;13.162;2022-07-01T05:25:39;100574.38;;;22.03;76.02
49835;BME280;35729;52.090;13.162;2022-07-01T05:28:07;100584.66;;;21.96;75.88
49835;BME280;35729;52.090;13.162;2022-07-01T05:30:36;100585.09;;;21.90;76.39
49835;BME280;35729;52.090;13.162;2022-07-01T05:33:04;100591.59;;;21.86;76.42
49835;BME280;35729;52.090;13.162;2022-07-01T05:35:33;100594.28;;;21.86;76.21
49835;BME280;35729;52.090;13.162;2022-07-01T05:38:01;100597.72;;;21.88;76.05
49835;BME280;35729;52.090;13.162;2022-07-01T05:40:32;100601.97;;;21.91;76.25
49835;BME280;35729;52.090;13.162;2022-07-01T05:43:01;100600.19;;;21.91;75.85
49835;BME280;35729;52.090;13.162;2022-07-01T05:45:29;100598.56;;;21.89;75.94
49835;BME280;35729;52.090;13.162;2022-07-01T05:47:58;100596.22;;;21.84;76.21
49835;BME280;35729;52.090;13.162;2022-07-01T05:50:27;100600.59;;;21.85;76.27
49835;BME280;35729;52.090;13.162;2022-07-01T05:52:55;100599.41;;;21.89;75.66
49835;BME280;35729;52.090;13.162;2022-07-01T05:55:24;100598.03;;;21.96;75.35
49835;BME280;35729;52.090;13.162;2022-07-01T05:57:55;100588.56;;;22.04;75.46
49835;BME280;35729;52.090;13.162;2022-07-01T06:00:23;100589.63;;;22.14;75.07
49835;BME280;35729;52.090;13.162;2022-07-01T06:02:52;100597.19;;;22.20;74.41
49835;BME280;35729;52.090;13.162;2022-07-01T06:05:20;100595.13;;;22.24;73.99
49835;BME280;35729;52.090;13.162;2022-07-01T06:07:49;100604.53;;;22.29;73.93
49835;BME280;35729;52.090;13.162;2022-07-01T06:10:18;100596.91;;;22.36;73.72
49835;BME280;35729;52.090;13.162;2022-07-01T06:12:46;100582.81;;;22.47;73.62
49835;BME280;35729;52.090;13.162;2022-07-01T06:15:17;100587.19;;;22.59;73.01
49835;BME280;35729;52.090;13.162;2022-07-01T06:17:46;100589.72;;;22.74;72.32
49835;BME280;35729;52.090;13.162;2022-07-01T06:20:15;100594.97;;;22.87;72.19
49835;BME280;35729;52.090;13.162;2022-07-01T06:22:43;100599.28;;;23.01;71.48
49835;BME280;35729;52.090;13.162;2022-07-01T06:25:12;100588.59;;;23.12;70.90
49835;BME280;35729;52.090;13.162;2022-07-01T06:27:47;100594.84;;;23.24;70.80
49835;BME280;35729;52.090;13.162;2022-07-01T06:30:18;100597.78;;;23.32;69.90
49835;BME280;35729;52.090;13.162;2022-07-01T06:32:46;100599.38;;;23.35;70.01
49835;BME280;35729;52.090;13.162;2022-07-01T06:35:15;100600.09;;;23.37;69.85
49835;BME280;35729;52.090;13.162;2022-07-01T06:37:43;100615.31;;;23.36;69.54
49835;BME280;35729;52.090;13.162;2022-07-01T06:40:12;100609.22;;;23.34;69.41
49835;BME280;35729;52.090;13.162;2022-07-01T06:42:40;100606.56;;;23.34;69.25
49835;BME280;35729;52.090;13.162;2022-07-01T06:45:10;100595.47;;;23.39;69.03
49835;BME280;35729;52.090;13.162;2022-07-01T06:47:41;100589.88;;;23.42;68.92
49835;BME280;35729;52.090;13.162;2022-07-01T06:50:09;100615.19;;;23.49;68.27
49835;BME280;35729;52.090;13.162;2022-07-01T06:52:38;100603.50;;;23.50;67.66
49835;BME280;35729;52.090;13.162;2022-07-01T06:55:07;100611.53;;;23.50;67.47
49835;BME280;35729;52.090;13.162;2022-07-01T06:57:36;100620.06;;;23.55;67.22
49835;BME280;35729;52.090;13.162;2022-07-01T07:00:06;100628.47;;;23.62;67.00
49835;BME280;35729;52.090;13.162;2022-07-01T07:02:35;100625.44;;;23.67;66.95
49835;BME280;35729;52.090;13.162;2022-07-01T07:05:08;100640.66;;;23.66;65.64
49835;BME280;35729;52.090;13.162;2022-07-01T07:07:37;100618.97;;;23.69;66.15
49835;BME280;35729;52.090;13.162;2022-07-01T07:10:06;100620.44;;;23.73;66.59
49835;BME280;35729;52.090;13.162;2022-07-01T07:12:35;100626.28;;;23.79;66.14
49835;BME280;35729;52.090;13.162;2022-07-01T07:15:04;100630.16;;;23.86;65.49
49835;BME280;35729;52.090;13.162;2022-07-01T07:17:33;100620.06;;;23.89;65.04
49835;BME280;35729;52.090;13.162;2022-07-01T07:20:02;100621.78;;;23.90;64.49
49835;BME280;35729;52.090;13.162;2022-07-01T07:22:33;100622.69;;;23.91;64.06
49835;BME280;35729;52.090;13.162;2022-07-01T07:25:02;100615.81;;;23.98;63.72
49835;BME280;35729;52.090;13.162;2022-07-01T07:27:31;100612.53;;;24.06;62.92
49835;BME280;35729;52.090;13.162;2022-07-01T07:29:59;100613.88;;;24.12;62.68
49835;BME280;35729;52.090;13.162;2022-07-01T07:32:28;100615.56;;;24.13;61.46
49835;BME280;35729;52.090;13.162;2022-07-01T07:34:57;100617.88;;;24.17;61.58
49835;BME280;35729;52.090;13.162;2022-07-01T07:37:26;100630.53;;;24.27;61.14
49835;BME280;35729;52.090;13.162;2022-07-01T07:40:00;100647.81;;;24.34;60.46
49835;BME280;35729;52.090;13.162;2022-07-01T07:42:29;100635.88;;;24.38;60.00
49835;BME280;35729;52.090;13.162;2022-07-01T07:44:58;100638.28;;;24.41;60.39
49835;BME280;35729;52.090;13.162;2022-07-01T07:47:27;100646.09;;;24.44;60.33
49835;BME280;35729;52.090;13.162;2022-07-01T07:49:55;100649.16;;;24.39;60.19
49835;BME280;35729;52.090;13.162;2022-07-01T07:52:24;100638.31;;;24.30;60.07
49835;BME280;35729;52.090;13.162;2022-07-01T07:54:52;100637.72;;;24.26;59.70
49835;BME280;35729;52.090;13.162;2022-07-01T07:57:24;100643.81;;;24.17;60.12
49835;BME280;35729;52.090;13.162;2022-07-01T07:59:52;100634.22;;;24.14;60.94
49835;BME280;35729;52.090;13.162;2022-07-01T08:02:21;100638.69;;;24.14;61.08
49835;BME280;35729;52.090;13.162;2022-07-01T08:04:50;100640.41;;;24.15;60.84
49835;BME280;35729;52.090;13.162;2022-07-01T08:07:18;100641.16;;;24.17;60.61
49835;BME280;35729;52.090;13.162;2022-07-01T08:09:47;100639.78;;;24.11;60.60
49835;BME280;35729;52.090;13.162;2022-07-01T08:12:15;100659.91;;;24.17;60.66
49835;BME280;35729;52.090;13.162;2022-07-01T08:14:47;100676.34;;;24.12;60.63
49835;BME280;35729;52.090;13.162;2022-07-01T08:17:15;100668.78;;;24.06;60.72
49835;BME280;35729;52.090;13.162;2022-07-01T08:19:44;100662.59;;;24.05;61.08
49835;BME280;35729;52.090;13.162;2022-07-01T08:22:12;100687.94;;;24.01;60.74
49835;BME280;35729;52.090;13.162;2022-07-01T08:24:41;100687.47;;;23.96;61.04
49835;BME280;35729;52.090;13.162;2022-07-01T08:27:09;100699.22;;;23.82;61.56
49835;BME280;35729;52.090;13.162;2022-07-01T08:29:38;100690.69;;;23.66;61.92
49835;BME280;35729;52.090;13.162;2022-07-01T08:32:09;100725.34;;;23.45;62.84
49835;BME280;35729;52.090;13.162;2022-07-01T08:34:38;100716.88;;;23.38;63.02
49835;BME280;35729;52.090;13.162;2022-07-01T08:37:06;100716.59;;;23.18;63.38
49835;BME280;35729;52.090;13.162;2022-07-01T08:39:35;100745.72;;;23.10;63.63
49835;BME280;35729;52.090;13.162;2022-07-01T08:42:04;100742.78;;;23.02;63.93
49835;BME280;35729;52.090;13.162;2022-07-01T08:44:35;100757.28;;;22.86;63.91
49835;BME280;35729;52.090;13.162;2022-07-01T08:47:04;100768.56;;;22.66;64.75
49835;BME280;35729;52.090;13.162;2022-07-01T08:49:35;100780.28;;;22.39;65.12
49835;BME280;35729;52.090;13.162;2022-07-01T08:52:04;100776.00;;;22.10;66.19
49835;BME280;35729;52.090;13.162;2022-07-01T08:54:35;100773.53;;;21.82;66.43
49835;BME280;35729;52.090;13.162;2022-07-01T08:57:05;100781.56;;;21.54;67.62
49835;BME280;35729;52.090;13.162;2022-07-01T08:59:34;100792.69;;;21.21;68.77
49835;BME280;35729;52.090;13.162;2022-07-01T09:02:04;100794.66;;;21.04;68.72
49835;BME280;35729;52.090;13.162;2022-07-01T09:04:35;100854.03;;;20.79;69.25
49835;BME280;35729;52.090;13.162;2022-07-01T09:07:06;100818.69;;;20.61;69.70
49835;BME280;35729;52.090;13.162;2022-07-01T09:09:37;100824.13;;;20.45;69.84
49835;BME280;35729;52.090;13.162;2022-07-01T09:12:08;100803.19;;;20.24;70.24
49835;BME280;35729;52.090;13.162;2022-07-01T09:14:37;100836.88;;;20.11;70.58
49835;BME280;35729;52.090;13.162;2022-07-01T09:17:06;100816.03;;;20.03;70.57
49835;BME280;35729;52.090;13.162;2022-07-01T09:19:38;100825.59;;;19.91;71.42
49835;BME280;35729;52.090;13.162;2022-07-01T09:22:06;100848.28;;;19.82;71.14
49835;BME280;35729;52.090;13.162;2022-07-01T09:24:36;100847.44;;;19.66;71.42
49835;BME280;35729;52.090;13.162;2022-07-01T09:27:08;100854.34;;;19.54;71.78
49835;BME280;35729;52.090;13.162;2022-07-01T09:29:40;100863.38;;;19.35;73.02
49835;BME280;35729;52.090;13.162;2022-07-01T09:32:10;100854.97;;;19.27;72.51
49835;BME280;35729;52.090;13.162;2022-07-01T09:34:43;100861.59;;;19.20;73.28
49835;BME280;35729;52.090;13.162;2022-07-01T09:37:14;100855.22;;;19.07;72.63
49835;BME280;35729;52.090;13.162;2022-07-01T09:39:44;100872.53;;;18.98;73.12
49835;BME280;35729;52.090;13.162;2022-07-01T09:42:20;100874.69;;;18.91;74.03
49835;BME280;35729;52.090;13.162;2022-07-01T09:44:53;100878.59;;;18.84;75.01
49835;BME280;35729;52.090;13.162;2022-07-01T09:47:22;100881.56;;;18.78;75.84
49835;BME280;35729;52.090;13.162;2022-07-01T09:49:54;100885.53;;;18.70;77.74
49835;BME280;35729;52.090;13.162;2022-07-01T09:52:30;100906.41;;;18.61;77.79
49835;BME280;35729;52.090;13.162;2022-07-01T09:54:58;100899.31;;;18.44;79.50
49835;BME280;35729;52.090;13.162;2022-07-01T09:57:27;100940.75;;;18.30;80.84
49835;BME280;35729;52.090;13.162;2022-07-01T09:59:56;100906.59;;;18.05;81.65
49835;BME280;35729;52.090;13.162;2022-07-01T10:02:26;100919.59;;;17.92;80.81
49835;BME280;35729;52.090;13.162;2022-07-01T10:05:02;100917.84;;;17.73;82.03
49835;BME280;35729;52.090;13.162;2022-07-01T10:07:42;100925.59;;;17.59;82.03
49835;BME280;35729;52.090;13.162;2022-07-01T10:10:26;100925.22;;;17.49;82.08
49835;BME280;35729;52.090;13.162;2022-07-01T10:12:59;100947.81;;;17.39;82.56
49835;BME280;35729;52.090;13.162;2022-07-01T10:15:30;100952.41;;;17.35;81.63
49835;BME280;35729;52.090;13.162;2022-07-01T10:17:59;100974.66;;;17.31;84.95
49835;BME280;35729;52.090;13.162;2022-07-01T10:20:30;100974.06;;;17.05;89.05
49835;BME280;35729;52.090;13.162;2022-07-01T10:23:03;100977.34;;;16.71;91.68
49835;BME280;35729;52.090;13.162;2022-07-01T10:25:35;100960.00;;;16.43;91.88
49835;BME280;35729;52.090;13.162;2022-07-01T10:28:21;100967.72;;;16.27;93.52
49835;BME280;35729;52.090;13.162;2022-07-01T10:31:09;100962.94;;;16.15;97.24
49835;BME280;35729;52.090;13.162;2022-07-01T10:33:46;100978.28;;;16.06;95.56
49835;BME280;35729;52.090;13.162;2022-07-01T10:36:25;100968.78;;;16.01;96.84
49835;BME280;35729;52.090;13.162;2022-07-01T10:39:10;100964.56;;;15.96;96.90
49835;BME280;35729;52.090;13.162;2022-07-01T10:41:41;100966.47;;;15.93;95.74
49835;BME280;35729;52.090;13.162;2022-07-01T10:44:11;100954.97;;;15.94;95.51
49835;BME280;35729;52.090;13.162;2022-07-01T10:46:42;100954.03;;;15.95;95.39
49835;BME280;35729;52.090;13.162;2022-07-01T10:49:12;100975.31;;;15.92;94.98
49835;BME280;35729;52.090;13.162;2022-07-01T10:51:51;100964.75;;;15.92;94.82
49835;BME280;35729;52.090;13.162;2022-07-01T10:54:45;100968.19;;;15.94;93.63
49835;BME280;35729;52.090;13.162;2022-07-01T10:57:22;100960.50;;;15.88;91.23
49835;BME280;35729;52.090;13.162;2022-07-01T10:59:53;100950.97;;;15.84;90.80
49835;BME280;35729;52.090;13.162;2022-07-01T11:02:24;100965.94;;;15.85;91.90
49835;BME280;35729;52.090;13.162;2022-07-01T11:04:56;100992.13;;;15.91;91.86
49835;BME280;35729;52.090;13.162;2022-07-01T11:07:29;100991.09;;;15.95;91.17
49835;BME280;35729;52.090;13.162;2022-07-01T11:09:59;100990.88;;;16.00;91.00
49835;BME280;35729;52.090;13.162;2022-07-01T11:12:28;100975.75;;;16.03;89.50
49835;BME280;35729;52.090;13.162;2022-07-01T11:14:59;100956.97;;;16.09;89.61
49835;BME280;35729;52.090;13.162;2022-07-01T11:17:28;100961.75;;;16.22;90.42
49835;BME280;35729;52.090;13.162;2022-07-01T11:19:58;100949.75;;;16.35;88.80
49835;BME280;35729;52.090;13.162;2022-07-01T11:22:33;100929.53;;;16.53;87.92
49835;BME280;35729;52.090;13.162;2022-07-01T11:25:03;100942.09;;;16.69;86.36
49835;BME280;35729;52.090;13.162;2022-07-01T11:27:33;100945.59;;;16.90;86.28
49835;BME280;35729;52.090;13.162;2022-07-01T11:30:04;100941.91;;;17.13;85.81
49835;BME280;35729;52.090;13.162;2022-07-01T11:32:36;100932.94;;;17.35;82.86
49835;BME280;35729;52.090;13.162;2022-07-01T11:35:09;100940.88;;;17.54;83.21
49835;BME280;35729;52.090;13.162;2022-07-01T11:38:07;100942.75;;;17.71;81.45
49835;BME280;35729;52.090;13.162;2022-07-01T11:40:49;100955.47;;;17.82;78.95
49835;BME280;35729;52.090;13.162;2022-07-01T11:43:19;100951.88;;;17.83;79.46
49835;BME280;35729;52.090;13.162;2022-07-01T11:45:48;100941.44;;;17.80;77.76
49835;BME280;35729;52.090;13.162;2022-07-01T11:48:34;100956.72;;;17.74;77.85
49835;BME280;35729;52.090;13.162;2022-07-01T11:51:10;100937.22;;;17.75;78.10
49835;BME280;35729;52.090;13.162;2022-07-01T11:53:44;100928.16;;;17.80;77.59
49835;BME280;35729;52.090;13.162;2022-07-01T11:56:14;100933.41;;;17.81;77.58
49835;BME280;35729;52.090;13.162;2022-07-01T11:58:48;100941.28;;;17.83;77.72
49835;BME280;35729;52.090;13.162;2022-07-01T12:01:22;100934.91;;;17.87;77.44
49835;BME280;35729;52.090;13.162;2022-07-01T12:03:51;100944.28;;;17.94;77.26
49835;BME280;35729;52.090;13.162;2022-07-01T12:06:20;100946.66;;;18.00;77.12
49835;BME280;35729;52.090;13.162;2022-07-01T12:08:53;100929.78;;;18.01;76.73
49835;BME280;35729;52.090;13.162;2022-07-01T12:11:23;100936.81;;;18.02;76.43
49835;BME280;35729;52.090;13.162;2022-07-01T12:13:52;100941.66;;;18.12;76.41
49835;BME280;35729;52.090;13.162;2022-07-01T12:16:22;100973.53;;;18.12;76.21
49835;BME280;35729;52.090;13.162;2022-07-01T12:18:55;100973.81;;;18.05;75.82
49835;BME280;35729;52.090;13.162;2022-07-01T12:21:24;100973.19;;;18.00;76.14
49835;BME280;35729;52.090;13.162;2022-07-01T12:24:09;100967.53;;;17.89;76.34
49835;BME280;35729;52.090;13.162;2022-07-01T12:26:49;100964.22;;;17.84;76.95
49835;BME280;35729;52.090;13.162;2022-07-01T12:29:20;100981.31;;;17.78;77.15
49835;BME280;35729;52.090;13.162;2022-07-01T12:31:57;100980.09;;;17.66;77.06
49835;BME280;35729;52.090;13.162;2022-07-01T12:34:40;101013.47;;;17.53;76.78
49835;BME280;35729;52.090;13.162;2022-07-01T12:37:11;101001.41;;;17.46;77.20
49835;BME280;35729;52.090;13.162;2022-07-01T12:39:47;101009.00;;;17.34;77.36
49835;BME280;35729;52.090;13.162;2022-07-01T12:42:24;100991.56;;;17.29;78.01
49835;BME280;35729;52.090;13.162;2022-07-01T12:44:54;101004.91;;;17.27;77.96
49835;BME280;35729;52.090;13.162;2022-07-01T12:47:25;101020.09;;;17.23;77.85
49835;BME280;35729;52.090;13.162;2022-07-01T12:50:11;101023.25;;;17.13;77.74
49835;BME280;35729;52.090;13.162;2022-07-01T12:52:42;101010.25;;;17.06;78.40
49835;BME280;35729;52.090;13.162;2022-07-01T12:55:19;101010.66;;;16.97;78.20
49835;BME280;35729;52.090;13.162;2022-07-01T12:57:49;101006.53;;;16.90;78.24